sensor_id;sensor_type;location;lat;lon;timestamp;temperature;humidity
23120;DHT22;11729;50.836;4.330;2022-11-13T00:00:48;10.40;99.90
23120;DHT22;11729;50.836;4.330;2022-11-13T00:03:14;10.30;99.90
23120;DHT22;11729;50.836;4.330;2022-11-13T00:05:40;10.30;99.90
23120;DHT22;11729;50.836;4.330;2022-11-13T00:08:05;10.30;99.90
23120;DHT22;11729;50.836;4.330;2022-11-13T00:10:31;10.30;99.90
23120;DHT22;11729;50.836;4.330;2022-11-13T00:12:56;10.30;99.90
23120;DHT22;11729;50.836;4.330;2022-11-13T00:15:22;10.20;99.90
23120;DHT22;11729;50.836;4.330;2022-11-13T00:17:47;10.20;99.90
23120;DHT22;11729;50.836;4.330;2022-11-13T00:20:13;10.20;99.90
23120;DHT22;11729;50.836;4.330;2022-11-13T00:22:39;10.20;99.90
23120;DHT22;11729;50.836;4.330;2022-11-13T00:25:04;10.10;99.90
23120;DHT22;11729;50.836;4.330;2022-11-13T00:27:31;10.10;99.90
23120;DHT22;11729;50.836;4.330;2022-11-13T00:29:56;10.10;99.90
23120;DHT22;11729;50.836;4.330;2022-11-13T00:32:22;10.10;99.90
23120;DHT22;11729;50.836;4.330;2022-11-13T00:34:47;10.10;99.90
23120;DHT22;11729;50.836;4.330;2022-11-13T00:37:13;10.10;99.90
23120;DHT22;11729;50.836;4.330;2022-11-13T00:39:39;10.10;99.90
23120;DHT22;11729;50.836;4.330;2022-11-13T00:42:04;10.10;99.90
23120;DHT22;11729;50.836;4.330;2022-11-13T00:44:30;10.00;99.90
23120;DHT22;11729;50.836;4.330;2022-11-13T00:46:56;9.90;99.90
23120;DHT22;11729;50.836;4.330;2022-11-13T00:49:21;9.90;99.90
23120;DHT22;11729;50.836;4.330;2022-11-13T00:51:47;9.90;99.90
23120;DHT22;11729;50.836;4.330;2022-11-13T00:54:12;9.80;99.90
23120;DHT22;11729;50.836;4.330;2022-11-13T00:56:38;9.90;99.90
23120;DHT22;11729;50.836;4.330;2022-11-13T00:59:03;9.80;99.90
23120;DHT22;11729;50.836;4.330;2022-11-13T01:01:30;9.80;99.90
23120;DHT22;11729;50.836;4.330;2022-11-13T01:03:56;9.80;99.90
23120;DHT22;11729;50.836;4.330;2022-11-13T01:06:24;9.80;99.90
23120;DHT22;11729;50.836;4.330;2022-11-13T01:08:53;9.80;99.90
23120;DHT22;11729;50.836;4.330;2022-11-13T01:11:21;9.70;99.90
23120;DHT22;11729;50.836;4.330;2022-11-13T01:13:48;9.70;99.90
23120;DHT22;11729;50.836;4.330;2022-11-13T01:16:16;9.70;99.90
23120;DHT22;11729;50.836;4.330;2022-11-13T01:18:42;9.80;99.90
23120;DHT22;11729;50.836;4.330;2022-11-13T01:21:14;9.80;99.90
23120;DHT22;11729;50.836;4.330;2022-11-13T01:23:40;9.80;99.90
23120;DHT22;11729;50.836;4.330;2022-11-13T01:26:10;9.80;99.90
23120;DHT22;11729;50.836;4.330;2022-11-13T01:28:36;9.80;99.90
23120;DHT22;11729;50.836;4.330;2022-11-13T01:31:11;9.80;99.90
23120;DHT22;11729;50.836;4.330;2022-11-13T01:33:37;9.80;99.90
23120;DHT22;11729;50.836;4.330;2022-11-13T01:36:06;9.70;99.90
23120;DHT22;11729;50.836;4.330;2022-11-13T01:38:32;9.70;99.90
23120;DHT22;11729;50.836;4.330;2022-11-13T01:40:58;9.80;99.90
23120;DHT22;11729;50.836;4.330;2022-11-13T01:43:29;9.70;99.90
23120;DHT22;11729;50.836;4.330;2022-11-13T01:48:27;9.80;99.90
23120;DHT22;11729;50.836;4.330;2022-11-13T01:50:55;9.80;99.90
23120;DHT22;11729;50.836;4.330;2022-11-13T01:53:21;9.70;99.90
23120;DHT22;11729;50.836;4.330;2022-11-13T01:55:47;9.70;99.90
23120;DHT22;11729;50.836;4.330;2022-11-13T01:58:13;9.80;99.90
23120;DHT22;11729;50.836;4.330;2022-11-13T02:00:40;9.80;99.90
23120;DHT22;11729;50.836;4.330;2022-11-13T02:03:06;9.80;99.90
23120;DHT22;11729;50.836;4.330;2022-11-13T02:05:31;9.70;99.90
23120;DHT22;11729;50.836;4.330;2022-11-13T02:07:57;9.80;99.90
23120;DHT22;11729;50.836;4.330;2022-11-13T02:10:23;9.70;99.90
23120;DHT22;11729;50.836;4.330;2022-11-13T02:12:50;9.70;99.90
23120;DHT22;11729;50.836;4.330;2022-11-13T02:15:18;9.70;99.90
23120;DHT22;11729;50.836;4.330;2022-11-13T02:17:49;9.60;99.90
23120;DHT22;11729;50.836;4.330;2022-11-13T02:20:24;9.60;99.90
23120;DHT22;11729;50.836;4.330;2022-11-13T02:23:13;9.60;99.90
23120;DHT22;11729;50.836;4.330;2022-11-13T02:25:42;9.60;99.90
23120;DHT22;11729;50.836;4.330;2022-11-13T02:28:09;9.50;99.90
23120;DHT22;11729;50.836;4.330;2022-11-13T02:30:35;9.50;99.90
23120;DHT22;11729;50.836;4.330;2022-11-13T02:33:00;9.50;99.90
23120;DHT22;11729;50.836;4.330;2022-11-13T02:35:36;9.50;99.90
23120;DHT22;11729;50.836;4.330;2022-11-13T02:38:04;9.40;99.90
23120;DHT22;11729;50.836;4.330;2022-11-13T02:40:31;9.40;99.90
23120;DHT22;11729;50.836;4.330;2022-11-13T02:42:57;9.40;99.90
23120;DHT22;11729;50.836;4.330;2022-11-13T02:45:23;9.40;99.90
23120;DHT22;11729;50.836;4.330;2022-11-13T02:47:49;9.30;99.90
23120;DHT22;11729;50.836;4.330;2022-11-13T02:50:16;9.30;99.90
23120;DHT22;11729;50.836;4.330;2022-11-13T02:52:41;9.30;99.90
23120;DHT22;11729;50.836;4.330;2022-11-13T02:55:07;9.30;99.90
23120;DHT22;11729;50.836;4.330;2022-11-13T02:57:33;9.20;99.90
23120;DHT22;11729;50.836;4.330;2022-11-13T02:59:59;9.20;99.90
23120;DHT22;11729;50.836;4.330;2022-11-13T03:02:24;9.20;99.90
23120;DHT22;11729;50.836;4.330;2022-11-13T03:04:50;9.20;99.90
23120;DHT22;11729;50.836;4.330;2022-11-13T03:07:16;9.10;99.90
23120;DHT22;11729;50.836;4.330;2022-11-13T03:09:41;9.10;99.90
23120;DHT22;11729;50.836;4.330;2022-11-13T03:12:08;9.10;99.90
23120;DHT22;11729;50.836;4.330;2022-11-13T03:14:35;9.20;99.90
23120;DHT22;11729;50.836;4.330;2022-11-13T03:17:01;9.20;99.90
23120;DHT22;11729;50.836;4.330;2022-11-13T03:19:26;9.10;99.90
23120;DHT22;11729;50.836;4.330;2022-11-13T03:21:52;9.00;99.90
23120;DHT22;11729;50.836;4.330;2022-11-13T03:24:18;8.90;99.90
23120;DHT22;11729;50.836;4.330;2022-11-13T03:26:43;9.00;99.90
23120;DHT22;11729;50.836;4.330;2022-11-13T03:29:09;8.90;99.90
23120;DHT22;11729;50.836;4.330;2022-11-13T03:31:35;8.90;99.90
23120;DHT22;11729;50.836;4.330;2022-11-13T03:34:00;8.90;99.90
23120;DHT22;11729;50.836;4.330;2022-11-13T03:36:26;9.00;99.90
23120;DHT22;11729;50.836;4.330;2022-11-13T03:38:51;8.90;99.90
23120;DHT22;11729;50.836;4.330;2022-11-13T03:41:20;8.90;99.90
23120;DHT22;11729;50.836;4.330;2022-11-13T03:43:46;8.90;99.90
23120;DHT22;11729;50.836;4.330;2022-11-13T03:46:12;9.00;99.90
23120;DHT22;11729;50.836;4.330;2022-11-13T03:48:37;9.00;99.90
23120;DHT22;11729;50.836;4.330;2022-11-13T03:51:03;9.00;99.90
23120;DHT22;11729;50.836;4.330;2022-11-13T03:53:28;8.90;99.90
23120;DHT22;11729;50.836;4.330;2022-11-13T03:55:54;9.00;99.90
23120;DHT22;11729;50.836;4.330;2022-11-13T03:58:19;8.90;99.90
23120;DHT22;11729;50.836;4.330;2022-11-13T04:00:45;8.90;99.90
23120;DHT22;11729;50.836;4.330;2022-11-13T04:03:11;9.00;99.90
23120;DHT22;11729;50.836;4.330;2022-11-13T04:05:37;9.00;99.90
23120;DHT22;11729;50.836;4.330;2022-11-13T04:08:03;9.00;99.90
23120;DHT22;11729;50.836;4.330;2022-11-13T04:10:29;8.90;99.90
23120;DHT22;11729;50.836;4.330;2022-11-13T04:12:55;8.90;99.90
23120;DHT22;11729;50.836;4.330;2022-11-13T04:15:21;8.90;99.90
23120;DHT22;11729;50.836;4.330;2022-11-13T04:17:47;9.00;99.90
23120;DHT22;11729;50.836;4.330;2022-11-13T04:20:13;9.10;99.90
23120;DHT22;11729;50.836;4.330;2022-11-13T04:22:39;9.00;99.90
23120;DHT22;11729;50.836;4.330;2022-11-13T04:25:05;9.00;99.90
23120;DHT22;11729;50.836;4.330;2022-11-13T04:27:31;9.10;99.90
23120;DHT22;11729;50.836;4.330;2022-11-13T04:29:56;9.10;99.90
23120;DHT22;11729;50.836;4.330;2022-11-13T04:32:22;9.10;99.90
23120;DHT22;11729;50.836;4.330;2022-11-13T04:34:48;8.90;99.90
23120;DHT22;11729;50.836;4.330;2022-11-13T04:37:13;8.90;99.90
23120;DHT22;11729;50.836;4.330;2022-11-13T04:39:39;8.80;99.90
23120;DHT22;11729;50.836;4.330;2022-11-13T04:42:04;8.80;99.90
23120;DHT22;11729;50.836;4.330;2022-11-13T04:44:50;8.80;99.90
23120;DHT22;11729;50.836;4.330;2022-11-13T04:47:15;8.80;99.90
23120;DHT22;11729;50.836;4.330;2022-11-13T04:49:41;8.70;99.90
23120;DHT22;11729;50.836;4.330;2022-11-13T04:52:06;8.80;99.90
23120;DHT22;11729;50.836;4.330;2022-11-13T04:54:32;8.80;99.90
23120;DHT22;11729;50.836;4.330;2022-11-13T04:56:58;8.80;99.90
23120;DHT22;11729;50.836;4.330;2022-11-13T04:59:24;8.80;99.90
23120;DHT22;11729;50.836;4.330;2022-11-13T05:01:50;8.80;99.90
23120;DHT22;11729;50.836;4.330;2022-11-13T05:04:16;8.90;99.90
23120;DHT22;11729;50.836;4.330;2022-11-13T05:06:41;8.80;99.90
23120;DHT22;11729;50.836;4.330;2022-11-13T05:09:07;8.80;99.90
23120;DHT22;11729;50.836;4.330;2022-11-13T05:11:33;8.70;99.90
23120;DHT22;11729;50.836;4.330;2022-11-13T05:13:58;8.60;99.90
23120;DHT22;11729;50.836;4.330;2022-11-13T05:16:24;8.60;99.90
23120;DHT22;11729;50.836;4.330;2022-11-13T05:18:49;8.50;99.90
23120;DHT22;11729;50.836;4.330;2022-11-13T05:21:15;8.50;99.90
23120;DHT22;11729;50.836;4.330;2022-11-13T05:23:41;8.50;99.90
23120;DHT22;11729;50.836;4.330;2022-11-13T05:26:09;8.50;99.90
23120;DHT22;11729;50.836;4.330;2022-11-13T05:28:36;8.50;99.90
23120;DHT22;11729;50.836;4.330;2022-11-13T05:31:08;8.50;99.90
23120;DHT22;11729;50.836;4.330;2022-11-13T05:33:35;8.40;99.90
23120;DHT22;11729;50.836;4.330;2022-11-13T05:36:07;8.40;99.90
23120;DHT22;11729;50.836;4.330;2022-11-13T05:38:34;8.30;99.90
23120;DHT22;11729;50.836;4.330;2022-11-13T05:41:10;8.30;99.90
23120;DHT22;11729;50.836;4.330;2022-11-13T05:43:37;8.30;99.90
23120;DHT22;11729;50.836;4.330;2022-11-13T05:46:05;8.30;99.90
23120;DHT22;11729;50.836;4.330;2022-11-13T05:48:31;8.20;99.90
23120;DHT22;11729;50.836;4.330;2022-11-13T05:51:18;8.20;99.90
23120;DHT22;11729;50.836;4.330;2022-11-13T05:53:44;8.20;99.90
23120;DHT22;11729;50.836;4.330;2022-11-13T05:56:15;8.20;99.90
23120;DHT22;11729;50.836;4.330;2022-11-13T05:58:41;8.20;99.90
23120;DHT22;11729;50.836;4.330;2022-11-13T06:01:19;8.30;99.90
23120;DHT22;11729;50.836;4.330;2022-11-13T06:03:45;8.20;99.90
23120;DHT22;11729;50.836;4.330;2022-11-13T06:06:14;8.20;99.90
23120;DHT22;11729;50.836;4.330;2022-11-13T06:08:42;8.20;99.90
23120;DHT22;11729;50.836;4.330;2022-11-13T06:11:14;8.20;99.90
23120;DHT22;11729;50.836;4.330;2022-11-13T06:13:40;8.20;99.90
23120;DHT22;11729;50.836;4.330;2022-11-13T06:16:09;8.10;99.90
23120;DHT22;11729;50.836;4.330;2022-11-13T06:18:37;8.10;99.90
23120;DHT22;11729;50.836;4.330;2022-11-13T06:21:09;8.10;99.90
23120;DHT22;11729;50.836;4.330;2022-11-13T06:23:37;8.10;99.90
23120;DHT22;11729;50.836;4.330;2022-11-13T06:26:17;8.00;99.90
23120;DHT22;11729;50.836;4.330;2022-11-13T06:28:43;8.00;99.90
23120;DHT22;11729;50.836;4.330;2022-11-13T06:31:12;8.00;99.90
23120;DHT22;11729;50.836;4.330;2022-11-13T06:33:39;8.00;99.90
23120;DHT22;11729;50.836;4.330;2022-11-13T06:36:07;7.90;99.90
23120;DHT22;11729;50.836;4.330;2022-11-13T06:38:36;8.00;99.90
23120;DHT22;11729;50.836;4.330;2022-11-13T06:41:03;8.00;99.90
23120;DHT22;11729;50.836;4.330;2022-11-13T06:43:29;7.90;99.90
23120;DHT22;11729;50.836;4.330;2022-11-13T06:45:56;7.90;99.90
23120;DHT22;11729;50.836;4.330;2022-11-13T06:48:22;7.90;99.90
23120;DHT22;11729;50.836;4.330;2022-11-13T06:50:48;7.90;99.90
23120;DHT22;11729;50.836;4.330;2022-11-13T06:53:14;7.90;99.90
23120;DHT22;11729;50.836;4.330;2022-11-13T06:55:48;7.90;99.90
23120;DHT22;11729;50.836;4.330;2022-11-13T06:58:14;7.90;99.90
23120;DHT22;11729;50.836;4.330;2022-11-13T07:00:41;7.90;99.90
23120;DHT22;11729;50.836;4.330;2022-11-13T07:03:18;7.90;99.90
23120;DHT22;11729;50.836;4.330;2022-11-13T07:05:44;7.90;99.90
23120;DHT22;11729;50.836;4.330;2022-11-13T07:08:10;7.90;99.90
23120;DHT22;11729;50.836;4.330;2022-11-13T07:10:35;7.90;99.90
23120;DHT22;11729;50.836;4.330;2022-11-13T07:13:01;8.00;99.90
23120;DHT22;11729;50.836;4.330;2022-11-13T07:15:27;7.90;99.90
23120;DHT22;11729;50.836;4.330;2022-11-13T07:17:52;7.90;99.90
23120;DHT22;11729;50.836;4.330;2022-11-13T07:20:18;7.90;99.90
23120;DHT22;11729;50.836;4.330;2022-11-13T07:22:44;8.00;99.90
23120;DHT22;11729;50.836;4.330;2022-11-13T07:25:09;8.00;99.90
23120;DHT22;11729;50.836;4.330;2022-11-13T07:27:35;8.00;99.90
23120;DHT22;11729;50.836;4.330;2022-11-13T07:30:00;8.00;99.90
23120;DHT22;11729;50.836;4.330;2022-11-13T07:32:26;8.10;99.90
23120;DHT22;11729;50.836;4.330;2022-11-13T07:34:52;8.10;99.90
23120;DHT22;11729;50.836;4.330;2022-11-13T07:37:18;8.10;99.90
23120;DHT22;11729;50.836;4.330;2022-11-13T07:39:44;8.20;99.90
23120;DHT22;11729;50.836;4.330;2022-11-13T07:42:09;8.20;99.90
23120;DHT22;11729;50.836;4.330;2022-11-13T07:44:35;8.20;99.90
23120;DHT22;11729;50.836;4.330;2022-11-13T07:47:01;8.20;99.90
23120;DHT22;11729;50.836;4.330;2022-11-13T07:49:26;8.30;99.90
23120;DHT22;11729;50.836;4.330;2022-11-13T07:51:52;8.30;99.90
23120;DHT22;11729;50.836;4.330;2022-11-13T07:54:17;8.30;99.90
23120;DHT22;11729;50.836;4.330;2022-11-13T07:56:43;8.30;99.90
23120;DHT22;11729;50.836;4.330;2022-11-13T07:59:11;8.30;99.90
23120;DHT22;11729;50.836;4.330;2022-11-13T08:01:37;8.30;99.90
23120;DHT22;11729;50.836;4.330;2022-11-13T08:04:03;8.40;99.90
23120;DHT22;11729;50.836;4.330;2022-11-13T08:06:29;8.40;99.90
23120;DHT22;11729;50.836;4.330;2022-11-13T08:08:54;8.40;99.90
23120;DHT22;11729;50.836;4.330;2022-11-13T08:11:20;8.50;99.90
23120;DHT22;11729;50.836;4.330;2022-11-13T08:13:45;8.50;99.90
23120;DHT22;11729;50.836;4.330;2022-11-13T08:16:11;8.60;99.90
23120;DHT22;11729;50.836;4.330;2022-11-13T08:18:37;8.70;99.90
23120;DHT22;11729;50.836;4.330;2022-11-13T08:21:03;8.70;99.90
23120;DHT22;11729;50.836;4.330;2022-11-13T08:23:30;8.80;99.90
23120;DHT22;11729;50.836;4.330;2022-11-13T08:25:57;8.90;99.90
23120;DHT22;11729;50.836;4.330;2022-11-13T08:28:23;8.90;99.90
23120;DHT22;11729;50.836;4.330;2022-11-13T08:30:48;9.00;99.90
23120;DHT22;11729;50.836;4.330;2022-11-13T08:33:14;9.10;99.90
23120;DHT22;11729;50.836;4.330;2022-11-13T08:35:40;9.10;99.90
23120;DHT22;11729;50.836;4.330;2022-11-13T08:38:07;9.10;99.90
23120;DHT22;11729;50.836;4.330;2022-11-13T08:40:34;9.10;99.90
23120;DHT22;11729;50.836;4.330;2022-11-13T08:43:01;9.20;99.90
23120;DHT22;11729;50.836;4.330;2022-11-13T08:45:28;9.20;99.90
23120;DHT22;11729;50.836;4.330;2022-11-13T08:47:53;9.30;99.90
23120;DHT22;11729;50.836;4.330;2022-11-13T08:50:19;9.40;99.90
23120;DHT22;11729;50.836;4.330;2022-11-13T08:52:45;9.50;99.90
23120;DHT22;11729;50.836;4.330;2022-11-13T08:55:10;9.60;99.90
23120;DHT22;11729;50.836;4.330;2022-11-13T08:57:36;9.70;99.90
23120;DHT22;11729;50.836;4.330;2022-11-13T09:00:02;9.70;99.90
23120;DHT22;11729;50.836;4.330;2022-11-13T09:02:30;9.80;99.90
23120;DHT22;11729;50.836;4.330;2022-11-13T09:04:55;9.80;99.90
23120;DHT22;11729;50.836;4.330;2022-11-13T09:07:21;9.80;99.90
23120;DHT22;11729;50.836;4.330;2022-11-13T09:09:46;9.80;99.90
23120;DHT22;11729;50.836;4.330;2022-11-13T09:12:12;9.80;99.90
23120;DHT22;11729;50.836;4.330;2022-11-13T09:14:37;9.90;99.90
23120;DHT22;11729;50.836;4.330;2022-11-13T09:17:03;10.00;99.90
23120;DHT22;11729;50.836;4.330;2022-11-13T09:19:29;10.10;99.90
23120;DHT22;11729;50.836;4.330;2022-11-13T09:21:54;10.10;99.90
23120;DHT22;11729;50.836;4.330;2022-11-13T09:24:20;10.10;99.90
23120;DHT22;11729;50.836;4.330;2022-11-13T09:26:46;10.10;99.90
23120;DHT22;11729;50.836;4.330;2022-11-13T09:29:11;10.20;99.90
23120;DHT22;11729;50.836;4.330;2022-11-13T09:31:37;10.30;99.90
23120;DHT22;11729;50.836;4.330;2022-11-13T09:34:06;10.30;99.90
23120;DHT22;11729;50.836;4.330;2022-11-13T09:36:31;10.40;99.90
23120;DHT22;11729;50.836;4.330;2022-11-13T09:38:57;10.50;99.90
23120;DHT22;11729;50.836;4.330;2022-11-13T09:41:28;10.60;99.90
23120;DHT22;11729;50.836;4.330;2022-11-13T09:43:57;10.60;99.90
23120;DHT22;11729;50.836;4.330;2022-11-13T09:49:21;10.90;99.90
23120;DHT22;11729;50.836;4.330;2022-11-13T09:51:54;11.10;99.90
23120;DHT22;11729;50.836;4.330;2022-11-13T09:54:21;11.20;99.90
23120;DHT22;11729;50.836;4.330;2022-11-13T10:13:23;12.60;99.90
23120;DHT22;11729;50.836;4.330;2022-11-13T10:15:53;12.70;99.90
23120;DHT22;11729;50.836;4.330;2022-11-13T10:18:26;12.80;99.90
23120;DHT22;11729;50.836;4.330;2022-11-13T10:20:55;12.80;99.90
23120;DHT22;11729;50.836;4.330;2022-11-13T10:23:27;12.90;99.90
23120;DHT22;11729;50.836;4.330;2022-11-13T10:25:55;12.90;99.90
23120;DHT22;11729;50.836;4.330;2022-11-13T10:28:25;13.00;99.90
23120;DHT22;11729;50.836;4.330;2022-11-13T10:30:51;13.10;99.90
23120;DHT22;11729;50.836;4.330;2022-11-13T10:33:19;13.20;99.90
23120;DHT22;11729;50.836;4.330;2022-11-13T10:38:23;13.40;99.90
23120;DHT22;11729;50.836;4.330;2022-11-13T10:40:49;13.50;99.90
23120;DHT22;11729;50.836;4.330;2022-11-13T10:43:23;13.50;99.90
23120;DHT22;11729;50.836;4.330;2022-11-13T10:45:58;13.70;99.90
23120;DHT22;11729;50.836;4.330;2022-11-13T10:50:59;13.90;99.90
23120;DHT22;11729;50.836;4.330;2022-11-13T10:53:26;13.90;99.90
23120;DHT22;11729;50.836;4.330;2022-11-13T10:55:56;14.10;99.90
23120;DHT22;11729;50.836;4.330;2022-11-13T10:58:22;14.20;99.90
23120;DHT22;11729;50.836;4.330;2022-11-13T11:00:47;14.20;99.90
23120;DHT22;11729;50.836;4.330;2022-11-13T11:03:22;13.90;99.90
23120;DHT22;11729;50.836;4.330;2022-11-13T11:06:00;13.90;99.90
23120;DHT22;11729;50.836;4.330;2022-11-13T11:08:33;14.00;99.90
23120;DHT22;11729;50.836;4.330;2022-11-13T11:11:17;14.30;99.90
23120;DHT22;11729;50.836;4.330;2022-11-13T11:14:25;14.50;99.90
23120;DHT22;11729;50.836;4.330;2022-11-13T11:16:52;15.00;99.90
23120;DHT22;11729;50.836;4.330;2022-11-13T11:19:21;15.40;99.90
23120;DHT22;11729;50.836;4.330;2022-11-13T11:21:53;15.90;99.90
23120;DHT22;11729;50.836;4.330;2022-11-13T11:24:25;16.80;99.90
23120;DHT22;11729;50.836;4.330;2022-11-13T11:27:00;17.90;99.90
23120;DHT22;11729;50.836;4.330;2022-11-13T11:32:18;20.30;99.90
23120;DHT22;11729;50.836;4.330;2022-11-13T11:34:55;20.60;99.90
23120;DHT22;11729;50.836;4.330;2022-11-13T11:37:30;21.60;99.90
23120;DHT22;11729;50.836;4.330;2022-11-13T11:40:16;22.60;99.90
23120;DHT22;11729;50.836;4.330;2022-11-13T11:42:54;23.00;99.20
23120;DHT22;11729;50.836;4.330;2022-11-13T11:47:54;24.00;92.60
23120;DHT22;11729;50.836;4.330;2022-11-13T11:50:50;23.50;92.80
23120;DHT22;11729;50.836;4.330;2022-11-13T11:53:51;23.20;92.80
23120;DHT22;11729;50.836;4.330;2022-11-13T12:04:30;18.90;99.90
23120;DHT22;11729;50.836;4.330;2022-11-13T12:07:20;18.50;99.90
23120;DHT22;11729;50.836;4.330;2022-11-13T12:12:24;17.50;99.90
23120;DHT22;11729;50.836;4.330;2022-11-13T12:18:30;17.30;99.90
23120;DHT22;11729;50.836;4.330;2022-11-13T12:26:04;17.30;99.90
23120;DHT22;11729;50.836;4.330;2022-11-13T12:28:47;17.70;99.90
23120;DHT22;11729;50.836;4.330;2022-11-13T12:31:19;18.60;99.90
23120;DHT22;11729;50.836;4.330;2022-11-13T12:36:36;20.90;98.10
23120;DHT22;11729;50.836;4.330;2022-11-13T12:41:42;22.90;93.00
23120;DHT22;11729;50.836;4.330;2022-11-13T12:46:40;25.70;79.50
23120;DHT22;11729;50.836;4.330;2022-11-13T12:52:17;25.40;78.20
23120;DHT22;11729;50.836;4.330;2022-11-13T12:54:43;25.80;73.00
23120;DHT22;11729;50.836;4.330;2022-11-13T13:10:09;25.50;68.70
23120;DHT22;11729;50.836;4.330;2022-11-13T13:20:39;27.40;66.20
23120;DHT22;11729;50.836;4.330;2022-11-13T13:23:25;27.70;61.50
23120;DHT22;11729;50.836;4.330;2022-11-13T13:26:01;27.70;60.70
23120;DHT22;11729;50.836;4.330;2022-11-13T13:28:27;27.50;60.10
23120;DHT22;11729;50.836;4.330;2022-11-13T13:31:00;26.90;61.70
23120;DHT22;11729;50.836;4.330;2022-11-13T13:39:39;26.10;64.00
23120;DHT22;11729;50.836;4.330;2022-11-13T13:47:23;26.80;60.90
23120;DHT22;11729;50.836;4.330;2022-11-13T13:49:51;27.30;58.50
23120;DHT22;11729;50.836;4.330;2022-11-13T13:52:28;26.40;59.50
23120;DHT22;11729;50.836;4.330;2022-11-13T13:54:55;26.00;60.70
23120;DHT22;11729;50.836;4.330;2022-11-13T13:57:21;26.00;61.50
23120;DHT22;11729;50.836;4.330;2022-11-13T13:59:48;25.20;62.20
23120;DHT22;11729;50.836;4.330;2022-11-13T14:02:20;23.60;65.50
23120;DHT22;11729;50.836;4.330;2022-11-13T14:04:52;22.60;68.10
23120;DHT22;11729;50.836;4.330;2022-11-13T14:07:21;21.60;72.70
23120;DHT22;11729;50.836;4.330;2022-11-13T14:09:48;20.90;75.60
23120;DHT22;11729;50.836;4.330;2022-11-13T14:12:19;20.20;78.90
23120;DHT22;11729;50.836;4.330;2022-11-13T14:14:45;19.70;82.20
23120;DHT22;11729;50.836;4.330;2022-11-13T14:17:11;19.30;85.00
23120;DHT22;11729;50.836;4.330;2022-11-13T14:19:38;18.90;88.00
23120;DHT22;11729;50.836;4.330;2022-11-13T14:22:05;18.80;89.40
23120;DHT22;11729;50.836;4.330;2022-11-13T14:24:49;18.60;90.60
23120;DHT22;11729;50.836;4.330;2022-11-13T14:27:22;18.50;91.30
23120;DHT22;11729;50.836;4.330;2022-11-13T14:29:51;18.20;92.20
23120;DHT22;11729;50.836;4.330;2022-11-13T14:32:22;18.10;92.30
23120;DHT22;11729;50.836;4.330;2022-11-13T14:34:51;17.80;92.60
23120;DHT22;11729;50.836;4.330;2022-11-13T14:37:20;17.70;93.10
23120;DHT22;11729;50.836;4.330;2022-11-13T14:39:48;17.70;93.30
23120;DHT22;11729;50.836;4.330;2022-11-13T14:42:36;17.60;93.60
23120;DHT22;11729;50.836;4.330;2022-11-13T14:45:17;17.60;93.80
23120;DHT22;11729;50.836;4.330;2022-11-13T14:47:53;17.60;94.10
23120;DHT22;11729;50.836;4.330;2022-11-13T14:50:31;17.50;94.20
23120;DHT22;11729;50.836;4.330;2022-11-13T14:53:00;17.50;94.60
23120;DHT22;11729;50.836;4.330;2022-11-13T14:55:30;17.30;94.90
23120;DHT22;11729;50.836;4.330;2022-11-13T14:57:56;17.30;95.00
23120;DHT22;11729;50.836;4.330;2022-11-13T15:00:36;17.30;95.30
23120;DHT22;11729;50.836;4.330;2022-11-13T15:03:05;17.30;95.90
23120;DHT22;11729;50.836;4.330;2022-11-13T15:05:31;17.10;96.10
23120;DHT22;11729;50.836;4.330;2022-11-13T15:07:58;17.20;97.30
23120;DHT22;11729;50.836;4.330;2022-11-13T15:10:26;17.10;98.00
23120;DHT22;11729;50.836;4.330;2022-11-13T15:12:52;17.00;99.00
23120;DHT22;11729;50.836;4.330;2022-11-13T15:15:22;17.00;99.80
23120;DHT22;11729;50.836;4.330;2022-11-13T15:17:49;16.80;99.90
23120;DHT22;11729;50.836;4.330;2022-11-13T15:20:20;16.60;99.90
23120;DHT22;11729;50.836;4.330;2022-11-13T15:22:46;16.50;99.90
23120;DHT22;11729;50.836;4.330;2022-11-13T15:25:17;16.50;99.90
23120;DHT22;11729;50.836;4.330;2022-11-13T15:27:43;16.50;99.90
23120;DHT22;11729;50.836;4.330;2022-11-13T15:30:09;16.60;99.90
23120;DHT22;11729;50.836;4.330;2022-11-13T15:32:35;16.50;99.90
23120;DHT22;11729;50.836;4.330;2022-11-13T15:35:00;16.40;99.90
23120;DHT22;11729;50.836;4.330;2022-11-13T15:37:26;16.30;99.90
23120;DHT22;11729;50.836;4.330;2022-11-13T15:39:52;16.20;99.90
23120;DHT22;11729;50.836;4.330;2022-11-13T15:42:31;16.20;99.90
23120;DHT22;11729;50.836;4.330;2022-11-13T15:44:57;16.20;99.90
23120;DHT22;11729;50.836;4.330;2022-11-13T15:47:35;16.00;99.90
23120;DHT22;11729;50.836;4.330;2022-11-13T15:50:02;16.00;99.90
23120;DHT22;11729;50.836;4.330;2022-11-13T15:52:31;15.90;99.90
23120;DHT22;11729;50.836;4.330;2022-11-13T15:55:01;15.80;99.90
23120;DHT22;11729;50.836;4.330;2022-11-13T15:57:28;15.70;99.90
23120;DHT22;11729;50.836;4.330;2022-11-13T15:59:54;15.70;99.90
23120;DHT22;11729;50.836;4.330;2022-11-13T16:02:20;15.70;99.90
23120;DHT22;11729;50.836;4.330;2022-11-13T16:04:46;15.60;99.90
23120;DHT22;11729;50.836;4.330;2022-11-13T16:07:17;15.50;99.90
23120;DHT22;11729;50.836;4.330;2022-11-13T16:09:44;15.40;99.90
23120;DHT22;11729;50.836;4.330;2022-11-13T16:12:12;15.30;99.90
23120;DHT22;11729;50.836;4.330;2022-11-13T16:14:38;15.20;99.90
23120;DHT22;11729;50.836;4.330;2022-11-13T16:17:15;15.20;99.90
23120;DHT22;11729;50.836;4.330;2022-11-13T16:19:45;15.00;99.90
23120;DHT22;11729;50.836;4.330;2022-11-13T16:22:20;15.00;99.90
23120;DHT22;11729;50.836;4.330;2022-11-13T16:24:46;14.90;99.90
23120;DHT22;11729;50.836;4.330;2022-11-13T16:27:16;14.90;99.90
23120;DHT22;11729;50.836;4.330;2022-11-13T16:29:43;14.80;99.90
23120;DHT22;11729;50.836;4.330;2022-11-13T16:32:15;14.70;99.90
23120;DHT22;11729;50.836;4.330;2022-11-13T16:34:42;14.70;99.90
23120;DHT22;11729;50.836;4.330;2022-11-13T16:39:38;14.60;99.90
23120;DHT22;11729;50.836;4.330;2022-11-13T16:42:03;14.60;99.90
23120;DHT22;11729;50.836;4.330;2022-11-13T16:44:29;14.40;99.90
23120;DHT22;11729;50.836;4.330;2022-11-13T16:46:54;14.40;99.90
23120;DHT22;11729;50.836;4.330;2022-11-13T16:49:20;14.40;99.90
23120;DHT22;11729;50.836;4.330;2022-11-13T16:51:45;14.20;99.90
23120;DHT22;11729;50.836;4.330;2022-11-13T16:54:11;14.10;99.90
23120;DHT22;11729;50.836;4.330;2022-11-13T16:56:37;14.10;99.90
23120;DHT22;11729;50.836;4.330;2022-11-13T16:59:03;14.10;99.90
23120;DHT22;11729;50.836;4.330;2022-11-13T17:01:29;14.10;99.90
23120;DHT22;11729;50.836;4.330;2022-11-13T17:03:54;14.00;99.90
23120;DHT22;11729;50.836;4.330;2022-11-13T17:08:48;13.90;99.90
23120;DHT22;11729;50.836;4.330;2022-11-13T17:11:14;13.90;99.90
23120;DHT22;11729;50.836;4.330;2022-11-13T17:13:40;13.90;99.90
23120;DHT22;11729;50.836;4.330;2022-11-13T17:16:10;13.80;99.90
23120;DHT22;11729;50.836;4.330;2022-11-13T17:18:36;13.80;99.90
23120;DHT22;11729;50.836;4.330;2022-11-13T17:21:01;13.80;99.90
23120;DHT22;11729;50.836;4.330;2022-11-13T17:23:27;13.70;99.90
23120;DHT22;11729;50.836;4.330;2022-11-13T17:25:52;13.60;99.90